Time;durP1;ratioP1;P1;durP2;ratioP2;P2;SDS_P1;SDS_P2;PMS_P1;PMS_P2;Temp;Humidity;BMP_temperature;BMP_pressure;BME280_temperature;BME280_humidity;BME280_pressure;Samples;Min_cycle;Max_cycle;Signal;HPM_P1;HPM_P2
2022/09/09 00:01:43;;;;;;;4.37;2.77;;;;;;;-146.58;100.00;69501.63;4973792;28;20030;-65
2022/09/09 00:04:27;;;;;;;8.18;2.97;;;;;;;-146.58;100.00;69501.63;4972291;28;20462;-65
2022/09/09 00:07:17;;;;;;;7.55;2.80;;;;;;;-146.58;100.00;69501.63;4992839;28;20112;-65
2022/09/09 00:09:52;;;;;;;6.32;3.13;;;;;;;-146.58;100.00;69501.63;4992398;28;20038;-65
2022/09/09 00:12:48;;;;;;;6.30;2.20;;;;;;;-146.58;100.00;69501.63;4993382;28;20030;-65
2022/09/09 00:15:19;;;;;;;8.52;3.83;;;;;;;-146.58;100.00;69501.63;4991922;28;20039;-66
2022/09/09 00:17:56;;;;;;;5.68;3.88;;;;;;;-146.58;100.00;69501.63;4993552;28;20073;-66
2022/09/09 00:20:35;;;;;;;4.25;3.47;;;;;;;-146.58;100.00;69501.63;4991493;28;20073;-66
2022/09/09 00:23:14;;;;;;;4.97;3.22;;;;;;;-146.58;100.00;69501.63;4993223;28;20038;-64
2022/09/09 00:25:52;;;;;;;;;;;;;;;-146.58;100.00;69501.63;4991859;28;20058;-64
2022/09/09 00:28:20;;;;;;;4.43;3.25;;;;;;;-146.58;100.00;69501.63;4992334;28;19918;-63
2022/09/09 00:30:48;;;;;;;4.25;2.92;;;;;;;-146.58;100.00;69501.63;4991760;28;20045;-63
2022/09/09 00:33:16;;;;;;;4.97;2.53;;;;;;;-146.58;100.00;69501.63;4992698;28;20108;-63
2022/09/09 00:35:54;;;;;;;6.97;3.58;;;;;;;-146.58;100.00;69501.63;4991428;28;20356;-62
2022/09/09 00:38:25;;;;;;;5.43;3.63;;;;;;;-146.58;100.00;69501.63;4993157;28;20018;-62
2022/09/09 00:41:10;;;;;;;8.27;2.78;;;;;;;-146.58;100.00;69501.63;4990865;28;20046;-63
2022/09/09 00:43:38;;;;;;;4.25;3.20;;;;;;;-146.58;100.00;69501.63;4990760;28;20038;-62
2022/09/09 00:46:23;;;;;;;6.55;3.63;;;;;;;-146.58;100.00;69501.63;4992910;28;20108;-63
2022/09/09 00:49:22;;;;;;;6.07;3.55;;;;;;;-146.58;100.00;69501.63;4991267;28;20095;-62
2022/09/09 00:51:59;;;;;;;3.97;3.67;;;;;;;-146.58;100.00;69501.63;4993137;28;20026;-63
2022/09/09 00:54:39;;;;;;;4.70;3.90;;;;;;;-146.58;100.00;69501.63;4991740;28;20141;-63
2022/09/09 00:57:27;;;;;;;3.72;3.40;;;;;;;-146.58;100.00;69501.63;4991862;28;20026;-63
2022/09/09 01:00:13;;;;;;;;;;;;;;;-146.58;100.00;69501.63;4992073;28;20133;-64
2022/09/09 01:02:57;;;;;;;5.35;3.72;;;;;;;-146.58;100.00;69501.63;4995489;28;19946;-64
2022/09/09 01:05:30;;;;;;;3.92;3.45;;;;;;;-146.58;100.00;69501.63;4990962;28;20050;-64
2022/09/09 01:08:01;;;;;;;3.95;3.65;;;;;;;-146.58;100.00;69501.63;4992364;28;20478;-63
2022/09/09 01:10:47;;;;;;;6.65;4.25;;;;;;;-146.58;100.00;69501.63;4991407;28;20044;-63
2022/09/09 01:13:24;;;;;;;7.85;5.68;;;;;;;-146.58;100.00;69501.63;4992408;28;20137;-64
2022/09/09 01:15:53;;;;;;;6.47;3.80;;;;;;;-146.58;100.00;69501.63;4990770;28;20506;-64
2022/09/09 01:18:21;;;;;;;6.75;4.88;;;;;;;-146.58;100.00;69501.63;4992360;28;20478;-64
2022/09/09 01:21:24;;;;;;;5.57;4.35;;;;;;;-146.58;100.00;69501.63;4991152;28;20034;-64
2022/09/09 01:24:01;;;;;;;6.20;5.65;;;;;;;-146.58;100.00;69501.63;4990872;28;20065;-63
2022/09/09 01:26:33;;;;;;;5.38;4.05;;;;;;;-146.58;100.00;69501.63;4972745;28;20027;-63
2022/09/09 01:28:59;;;;;;;7.53;5.10;;;;;;;-146.58;100.00;69501.63;4978130;28;20057;-60
2022/09/09 01:31:37;;;;;;;7.97;4.65;;;;;;;-146.58;100.00;69501.63;4992015;28;20398;-62
2022/09/09 01:34:12;;;;;;;7.88;4.78;;;;;;;-146.58;100.00;69501.63;4990037;28;20050;-61
2022/09/09 01:36:43;;;;;;;6.30;5.70;;;;;;;-146.58;100.00;69501.63;4992078;28;20023;-61
2022/09/09 01:39:09;;;;;;;8.27;5.93;;;;;;;-146.58;100.00;69501.63;4990433;28;20042;-61
2022/09/09 01:41:35;;;;;;;9.10;6.60;;;;;;;-146.58;100.00;69501.63;4991691;28;20445;-61
2022/09/09 01:44:00;;;;;;;7.15;5.60;;;;;;;-146.58;100.00;69501.63;4987774;28;20046;-63
2022/09/09 01:46:27;;;;;;;8.43;6.63;;;;;;;-146.58;100.00;69501.63;4992056;28;20030;-64
2022/09/09 01:48:54;;;;;;;6.65;6.03;;;;;;;-146.58;100.00;69501.63;4989079;28;20054;-65
2022/09/09 01:51:19;;;;;;;7.55;6.15;;;;;;;-146.58;100.00;69501.63;4991657;28;20061;-65
2022/09/09 01:53:46;;;;;;;9.68;5.88;;;;;;;-146.58;100.00;69501.63;4990129;28;20022;-64
2022/09/09 01:56:17;;;;;;;8.20;7.20;;;;;;;-146.58;100.00;69501.63;4991166;28;20022;-64
2022/09/09 01:59:01;;;;;;;8.50;4.95;;;;;;;-146.58;100.00;69501.63;4988841;28;20109;-64
2022/09/09 02:01:45;;;;;;;5.95;4.80;;;;;;;-146.58;100.00;69501.63;4990624;28;20429;-64
2022/09/09 02:04:40;;;;;;;6.75;4.55;;;;;;;-146.58;100.00;69501.63;4988602;28;20046;-65
2022/09/09 02:07:19;;;;;;;5.65;5.15;;;;;;;-146.58;100.00;69501.63;4990533;28;20446;-64
2022/09/09 02:09:49;;;;;;;6.90;6.10;;;;;;;-146.58;100.00;69501.63;4989599;28;20054;-64
2022/09/09 02:12:18;;;;;;;8.55;5.60;;;;;;;-146.58;100.00;69501.63;4991692;28;20033;-64
2022/09/09 02:14:52;;;;;;;8.15;5.72;;;;;;;-146.58;100.00;69501.63;4989875;28;20045;-64
2022/09/09 02:17:29;;;;;;;7.90;6.18;;;;;;;-146.58;100.00;69501.63;4991876;28;20085;-65
2022/09/09 02:20:08;;;;;;;6.20;4.97;;;;;;;-146.58;100.00;69501.63;4990300;28;20038;-65
2022/09/09 02:22:39;;;;;;;9.55;5.47;;;;;;;-146.58;100.00;69501.63;4991908;28;20027;-65
2022/09/09 02:25:08;;;;;;;6.30;5.70;;;;;;;-146.58;100.00;69501.63;4989650;28;20050;-65
2022/09/09 02:27:33;;;;;;;7.30;5.78;;;;;;;-146.58;100.00;69501.63;4991289;28;20026;-65
2022/09/09 02:30:01;;;;;;;8.43;5.88;;;;;;;-146.58;100.00;69501.63;4990197;28;20126;-65
2022/09/09 02:32:30;;;;;;;6.13;5.53;;;;;;;-146.58;100.00;69501.63;4991315;28;20605;-65
2022/09/09 02:35:00;;;;;;;7.65;5.60;;;;;;;-146.58;100.00;69501.63;4989803;28;20093;-65
2022/09/09 02:37:35;;;;;;;8.25;4.32;;;;;;;-146.58;100.00;69501.63;4991812;28;20026;-65
2022/09/09 02:40:01;;;;;;;8.13;5.93;;;;;;;-146.58;100.00;69501.63;4987719;28;20049;-65
2022/09/09 02:42:27;;;;;;;9.00;5.50;;;;;;;-146.58;100.00;69501.63;4991252;28;20019;-65
2022/09/09 02:44:52;;;;;;;5.20;4.80;;;;;;;-146.58;100.00;69501.63;4989629;28;20079;-65
2022/09/09 02:47:17;;;;;;;6.78;5.43;;;;;;;-146.58;100.00;69501.63;4990925;28;20026;-65
2022/09/09 02:50:03;;;;;;;9.23;6.88;;;;;;;-146.58;100.00;69501.63;4989613;28;20050;-65
2022/09/09 02:52:41;;;;;;;5.70;5.22;;;;;;;-146.58;100.00;69501.63;4990992;28;20069;-65
2022/09/09 02:55:18;;;;;;;7.00;6.23;;;;;;;-146.58;100.00;69501.63;4989384;28;20052;-66
2022/09/09 02:57:47;;;;;;;6.22;5.72;;;;;;;-146.58;100.00;69501.63;4972093;28;20041;-61
2022/09/09 03:00:13;;;;;;;6.35;5.57;;;;;;;-146.58;100.00;69501.63;4985722;28;20160;-67
2022/09/09 03:02:38;;;;;;;8.82;5.97;;;;;;;-146.58;100.00;69501.63;4989545;28;20489;-64
2022/09/09 03:05:04;;;;;;;8.13;5.60;;;;;;;-146.58;100.00;69501.63;4987735;28;20084;-64
2022/09/09 03:07:30;;;;;;;5.55;4.82;;;;;;;-146.58;100.00;69501.63;4989598;28;20030;-64
2022/09/09 03:09:55;;;;;;;5.57;5.15;;;;;;;-146.58;100.00;69501.63;4988697;28;20520;-65
2022/09/09 03:12:21;;;;;;;8.45;5.40;;;;;;;-146.58;100.00;69501.63;4991275;28;20030;-64
2022/09/09 03:14:46;;;;;;;6.80;6.20;;;;;;;-146.58;100.00;69501.63;4988622;28;20053;-63
2022/09/09 03:17:12;;;;;;;8.00;5.97;;;;;;;-146.58;100.00;69501.63;4990987;28;20448;-63
2022/09/09 03:19:37;;;;;;;6.10;5.55;;;;;;;-146.58;100.00;69501.63;4989959;28;20073;-63
2022/09/09 03:22:04;;;;;;;6.47;5.80;;;;;;;-146.58;100.00;69501.63;4994532;28;20030;-66
2022/09/09 03:24:29;;;;;;;6.22;5.63;;;;;;;-146.58;100.00;69501.63;4992961;28;20391;-65
2022/09/09 03:26:55;;;;;;;7.18;5.80;;;;;;;-146.58;100.00;69501.63;4994437;28;20034;-66
2022/09/09 03:29:21;;;;;;;10.18;6.63;;;;;;;-146.58;100.00;69501.63;4992857;28;20057;-64
2022/09/09 03:31:47;;;;;;;8.00;7.10;;;;;;;-146.58;100.00;69501.63;4994376;28;20030;-64
2022/09/09 03:34:13;;;;;;;30.15;9.15;;;;;;;-146.58;100.00;69501.63;4991599;28;20054;-65
2022/09/09 03:36:40;;;;;;;10.98;6.55;;;;;;;-146.58;100.00;69501.63;4994017;28;20053;-64
2022/09/09 03:39:06;;;;;;;8.45;6.43;;;;;;;-146.58;100.00;69501.63;4991527;28;20457;-65
2022/09/09 03:41:31;;;;;;;6.82;5.72;;;;;;;-146.58;100.00;69501.63;4993290;28;20085;-65
2022/09/09 03:43:56;;;;;;;7.80;6.60;;;;;;;-146.58;100.00;69501.63;4992636;28;20070;-65
2022/09/09 03:46:24;;;;;;;7.38;6.53;;;;;;;-146.58;100.00;69501.63;4993982;28;20033;-65
2022/09/09 03:48:50;;;;;;;7.88;6.80;;;;;;;-146.58;100.00;69501.63;4992574;28;20022;-65
2022/09/09 03:51:16;;;;;;;8.57;7.35;;;;;;;-146.58;100.00;69501.63;4994424;28;20026;-64
2022/09/09 03:53:42;;;;;;;7.25;6.20;;;;;;;-146.58;100.00;69501.63;4992373;28;20022;-66
2022/09/09 03:56:09;;;;;;;7.63;6.50;;;;;;;-146.58;100.00;69501.63;4993940;28;20022;-66
2022/09/09 03:58:35;;;;;;;7.93;7.05;;;;;;;-146.58;100.00;69501.63;4992995;28;20201;-65
2022/09/09 04:01:04;;;;;;;14.82;6.88;;;;;;;-146.58;100.00;69501.63;4993420;28;20033;-66
2022/09/09 04:03:30;;;;;;;7.25;6.55;;;;;;;-146.58;100.00;69501.63;4994253;28;20482;-66
2022/09/09 04:05:58;;;;;;;10.02;6.68;;;;;;;-146.58;100.00;69501.63;4992117;28;20057;-63
2022/09/09 04:08:26;;;;;;;8.85;6.07;;;;;;;-146.58;100.00;69501.63;4993568;28;20026;-62
2022/09/09 04:10:52;;;;;;;8.32;6.88;;;;;;;-146.58;100.00;69501.63;4991766;28;20046;-62
2022/09/09 04:13:19;;;;;;;11.75;7.20;;;;;;;-146.58;100.00;69501.63;4992773;28;20041;-61
2022/09/09 04:15:53;;;;;;;10.60;6.78;;;;;;;-146.58;100.00;69501.63;4992110;28;20046;-66
2022/09/09 04:18:19;;;;;;;15.50;8.05;;;;;;;-146.58;100.00;69501.63;4992642;28;20018;-66
2022/09/09 04:20:49;;;;;;;12.45;8.00;;;;;;;-146.58;100.00;69501.63;4990960;28;20057;-66
2022/09/09 04:23:15;;;;;;;12.15;6.63;;;;;;;-146.58;100.00;69501.63;4992943;28;20037;-66
2022/09/09 04:25:46;;;;;;;9.75;7.22;;;;;;;-146.58;100.00;69501.63;4992107;28;20058;-66
2022/09/09 04:28:12;;;;;;;12.27;8.88;;;;;;;-146.58;100.00;69501.63;4992864;28;20018;-66
2022/09/09 04:30:39;;;;;;;14.50;9.02;;;;;;;-146.58;100.00;69501.63;4991340;28;20133;-66
2022/09/09 04:33:05;;;;;;;11.35;8.55;;;;;;;-146.58;100.00;69501.63;4992137;28;20029;-65
2022/09/09 04:35:30;;;;;;;9.13;8.07;;;;;;;-146.58;100.00;69501.63;4992105;28;20046;-66
2022/09/09 04:37:56;;;;;;;14.60;8.68;;;;;;;-146.58;100.00;69501.63;4992684;28;20041;-66
2022/09/09 04:40:22;;;;;;;13.45;9.30;;;;;;;-146.58;100.00;69501.63;4990968;28;20042;-66
2022/09/09 04:42:48;;;;;;;16.80;11.27;;;;;;;-146.58;100.00;69501.63;4991698;28;20030;-67
2022/09/09 04:45:13;;;;;;;14.30;8.68;;;;;;;-146.58;100.00;69501.63;4990764;28;20046;-66
2022/09/09 04:47:39;;;;;;;16.10;9.02;;;;;;;-146.58;100.00;69501.63;4992442;28;20022;-66
2022/09/09 04:50:05;;;;;;;21.20;9.10;;;;;;;-146.58;100.00;69501.63;4990325;28;20046;-66
2022/09/09 04:52:30;;;;;;;9.07;8.18;;;;;;;-146.58;100.00;69501.63;4991177;28;20482;-65
2022/09/09 04:54:55;;;;;;;15.23;9.27;;;;;;;-146.58;100.00;69501.63;4989737;28;20039;-65
2022/09/09 04:57:21;;;;;;;10.40;8.02;;;;;;;-146.58;100.00;69501.63;4991535;28;20031;-65
2022/09/09 04:59:46;;;;;;;16.23;10.13;;;;;;;-146.58;100.00;69501.63;4989660;28;20537;-66
2022/09/09 05:02:12;;;;;;;10.88;8.68;;;;;;;-146.58;100.00;69501.63;4990256;28;20030;-65
2022/09/09 05:04:37;;;;;;;13.02;7.70;;;;;;;-146.58;100.00;69501.63;4982071;28;20051;-66
2022/09/09 05:07:02;;;;;;;9.88;7.65;;;;;;;-146.58;100.00;69501.63;4987902;28;20038;-65
2022/09/09 05:09:28;;;;;;;9.48;7.85;;;;;;;-146.58;100.00;69501.63;4989799;28;20481;-66
2022/09/09 05:11:54;;;;;;;8.65;7.85;;;;;;;-146.58;100.00;69501.63;4989609;28;20026;-65
2022/09/09 05:14:20;;;;;;;15.18;7.80;;;;;;;-146.58;100.00;69501.63;4990505;28;20050;-66
2022/09/09 05:16:46;;;;;;;11.52;7.90;;;;;;;-146.58;100.00;69501.63;4992316;28;20030;-63
2022/09/09 05:19:12;;;;;;;8.40;7.45;;;;;;;-146.58;100.00;69501.63;4991062;28;20042;-63
2022/09/09 05:21:37;;;;;;;16.00;10.13;;;;;;;-146.58;100.00;69501.63;4991662;28;20093;-63
2022/09/09 05:24:03;;;;;;;14.55;9.65;;;;;;;-146.58;100.00;69501.63;4989633;28;20050;-63
2022/09/09 05:26:29;;;;;;;8.77;8.05;;;;;;;-146.58;100.00;69501.63;4990605;28;20034;-63
2022/09/09 05:28:55;;;;;;;18.70;8.90;;;;;;;-146.58;100.00;69501.63;4990334;28;20474;-63
2022/09/09 05:31:20;;;;;;;11.93;8.48;;;;;;;-146.58;100.00;69501.63;4990117;28;20029;-64
2022/09/09 05:33:49;;;;;;;12.50;7.80;;;;;;;-146.58;100.00;69501.63;4990054;28;20077;-64
2022/09/09 05:36:16;;;;;;;9.90;8.25;;;;;;;-146.58;100.00;69501.63;4991301;28;20385;-63
2022/09/09 05:38:43;;;;;;;10.13;7.60;;;;;;;-146.58;100.00;69501.63;4989331;28;20023;-63
2022/09/09 05:41:11;;;;;;;12.80;8.48;;;;;;;-146.58;100.00;69501.63;4990717;28;20456;-63
2022/09/09 05:43:37;;;;;;;10.13;7.50;;;;;;;-146.58;100.00;69501.63;4989043;28;20400;-63
2022/09/09 05:46:07;;;;;;;13.05;8.82;;;;;;;-146.58;100.00;69501.63;4991526;28;20101;-63
2022/09/09 05:48:46;;;;;;;9.45;8.57;;;;;;;-146.58;100.00;69501.63;4990964;28;20117;-60
2022/09/09 05:51:15;;;;;;;9.32;7.57;;;;;;;-146.58;100.00;69501.63;4991048;28;20034;-64
2022/09/09 05:53:41;;;;;;;13.20;8.68;;;;;;;-146.58;100.00;69501.63;4989223;28;20478;-64
2022/09/09 05:56:14;;;;;;;10.18;7.05;;;;;;;-146.58;100.00;69501.63;4991402;28;20030;-64
2022/09/09 05:58:39;;;;;;;10.75;7.50;;;;;;;-146.58;100.00;69501.63;4989698;28;20871;-64
2022/09/09 06:01:10;;;;;;;12.60;7.75;;;;;;;-146.58;100.00;69501.63;4990428;28;20034;-58
2022/09/09 06:03:38;;;;;;;10.13;8.10;;;;;;;-146.58;100.00;69501.63;4990445;28;20038;-60
2022/09/09 06:06:06;;;;;;;8.93;6.65;;;;;;;-146.58;100.00;69501.63;4991427;28;20042;-60
2022/09/09 06:08:33;;;;;;;12.63;7.95;;;;;;;-146.58;100.00;69501.63;4991401;28;20482;-60
2022/09/09 06:11:10;;;;;;;9.98;7.28;;;;;;;-146.58;100.00;69501.63;4990168;28;20074;-60
2022/09/09 06:13:39;;;;;;;16.63;8.25;;;;;;;-146.58;100.00;69501.63;4989949;28;20604;-59
2022/09/09 06:16:12;;;;;;;15.57;9.45;;;;;;;-146.58;100.00;69501.63;4991257;28;20090;-59
2022/09/09 06:18:41;;;;;;;8.90;6.07;;;;;;;-146.58;100.00;69501.63;4990068;28;20038;-59
2022/09/09 06:21:14;;;;;;;10.95;7.30;;;;;;;-146.58;100.00;69501.63;4991526;28;20029;-60
2022/09/09 06:23:40;;;;;;;9.40;6.45;;;;;;;-146.58;100.00;69501.63;4989885;28;20029;-59
2022/09/09 06:26:09;;;;;;;17.70;7.40;;;;;;;-146.58;100.00;69501.63;4991382;28;20034;-60
2022/09/09 06:28:35;;;;;;;;;;;;;;;-146.58;100.00;69501.63;4990648;28;20268;-59
2022/09/09 06:31:05;;;;;;;9.55;5.50;;;;;;;-146.58;100.00;69501.63;4991087;28;19956;-59
2022/09/09 06:33:34;;;;;;;9.57;6.93;;;;;;;-146.58;100.00;69501.63;4991606;28;20037;-60
2022/09/09 06:36:01;;;;;;;11.68;5.63;;;;;;;-146.58;100.00;69501.63;4989944;28;20101;-59
2022/09/09 06:38:27;;;;;;;6.63;5.53;;;;;;;-146.58;100.00;69501.63;4991095;28;20018;-59
2022/09/09 06:40:58;;;;;;;18.45;5.95;;;;;;;-146.58;100.00;69501.63;4989978;28;20043;-62
2022/09/09 06:43:26;;;;;;;12.13;5.18;;;;;;;-146.58;100.00;69501.63;4991652;28;20050;-60
2022/09/09 06:46:02;;;;;;;13.45;5.93;;;;;;;-146.58;100.00;69501.63;4989408;28;20042;-60
2022/09/09 06:48:28;;;;;;;8.95;6.05;;;;;;;-146.58;100.00;69501.63;4991202;28;20474;-62
2022/09/09 06:51:05;;;;;;;9.98;4.53;;;;;;;-146.58;100.00;69501.63;4989721;28;20038;-61
2022/09/09 06:53:33;;;;;;;15.30;4.95;;;;;;;-146.58;100.00;69501.63;4991068;28;20023;-59
2022/09/09 06:56:01;;;;;;;7.90;5.72;;;;;;;-146.58;100.00;69501.63;4992137;28;20046;-61
2022/09/09 06:58:26;;;;;;;9.02;4.65;;;;;;;-146.58;100.00;69501.63;4995415;28;20397;-61
2022/09/09 07:00:51;;;;;;;6.32;3.75;;;;;;;-146.58;100.00;69501.63;4993043;28;20034;-60
2022/09/09 07:03:17;;;;;;;4.82;4.35;;;;;;;-146.58;100.00;69501.63;4995315;28;20030;-60
2022/09/09 07:05:44;;;;;;;12.05;4.32;;;;;;;-146.58;100.00;69501.63;4992935;28;20061;-60
2022/09/09 07:08:10;;;;;;;10.07;4.88;;;;;;;-146.58;100.00;69501.63;5011905;28;20219;-59
2022/09/09 07:10:36;;;;;;;8.57;3.20;;;;;;;-146.58;100.00;69501.63;5007434;28;20133;-59
2022/09/09 07:13:02;;;;;;;7.07;3.75;;;;;;;-146.58;100.00;69501.63;4994670;28;20378;-59
2022/09/09 07:15:27;;;;;;;10.55;4.30;;;;;;;-146.58;100.00;69501.63;4992922;28;20034;-59
2022/09/09 07:17:53;;;;;;;7.38;2.78;;;;;;;-146.58;100.00;69501.63;4994549;28;20497;-58
2022/09/09 07:20:20;;;;;;;8.57;3.60;;;;;;;-146.58;100.00;69501.63;4993180;28;20049;-61
2022/09/09 07:22:45;;;;;;;10.60;4.03;;;;;;;-146.58;100.00;69501.63;4994267;28;20061;-59
2022/09/09 07:25:11;;;;;;;6.60;3.40;;;;;;;-146.58;100.00;69501.63;4993084;28;20046;-60
2022/09/09 07:27:36;;;;;;;12.68;3.58;;;;;;;-146.58;100.00;69501.63;4994320;28;20022;-59
2022/09/09 07:30:02;;;;;;;12.98;3.38;;;;;;;-146.58;100.00;69501.63;4992760;28;20045;-59
2022/09/09 07:32:27;;;;;;;6.93;3.53;;;;;;;-146.58;100.00;69501.63;4994544;28;20115;-59
2022/09/09 07:34:53;;;;;;;10.32;2.75;;;;;;;-146.58;100.00;69501.63;4992592;28;20470;-61
2022/09/09 07:37:18;;;;;;;21.85;3.40;;;;;;;-146.58;100.00;69501.63;4994184;28;20476;-61
2022/09/09 07:39:44;;;;;;;13.55;3.55;;;;;;;-146.58;100.00;69501.63;4993147;28;20441;-62
2022/09/09 07:42:11;;;;;;;5.65;2.97;;;;;;;-146.58;100.00;69501.63;4994137;28;20045;-61
2022/09/09 07:44:39;;;;;;;4.55;3.15;;;;;;;-146.58;100.00;69501.63;4992726;28;20042;-59
2022/09/09 07:47:05;;;;;;;8.43;2.80;;;;;;;-146.58;100.00;69501.63;4993958;28;20053;-60
2022/09/09 07:49:31;;;;;;;5.43;2.17;;;;;;;-146.58;100.00;69501.63;4990314;28;20073;-61
2022/09/09 07:51:57;;;;;;;11.55;4.03;;;;;;;-146.58;100.00;69501.63;4993269;28;20026;-61
2022/09/09 07:54:23;;;;;;;13.20;3.63;;;;;;;-146.58;100.00;69501.63;4992587;28;20049;-61
2022/09/09 07:56:49;;;;;;;16.38;4.32;;;;;;;-146.58;100.00;69501.63;4993794;28;20482;-62
2022/09/09 07:59:15;;;;;;;6.90;3.22;;;;;;;-146.58;100.00;69501.63;4991883;28;20045;-59
2022/09/09 08:01:43;;;;;;;5.38;2.63;;;;;;;-146.58;100.00;69501.63;4993986;28;20077;-60
2022/09/09 08:04:14;;;;;;;6.15;2.65;;;;;;;-146.58;100.00;69501.63;4992338;28;20102;-59
2022/09/09 08:06:42;;;;;;;13.05;3.35;;;;;;;-146.58;100.00;69501.63;4993602;28;20109;-61
2022/09/09 08:09:08;;;;;;;7.95;4.05;;;;;;;-146.58;100.00;69501.63;4992464;28;20051;-60
2022/09/09 08:11:35;;;;;;;12.50;3.55;;;;;;;-146.58;100.00;69501.63;4993837;28;20440;-61
2022/09/09 08:14:01;;;;;;;6.88;2.55;;;;;;;-146.58;100.00;69501.63;4992115;28;20038;-61
2022/09/09 08:16:30;;;;;;;7.25;2.80;;;;;;;-146.58;100.00;69501.63;4993713;28;20041;-61
2022/09/09 08:18:55;;;;;;;10.05;4.85;;;;;;;-146.58;100.00;69501.63;4991982;28;20049;-62
2022/09/09 08:21:24;;;;;;;5.40;2.13;;;;;;;-146.58;100.00;69501.63;4993740;28;20104;-61
2022/09/09 08:23:52;;;;;;;11.93;2.90;;;;;;;-146.58;100.00;69501.63;4992384;28;20073;-61
2022/09/09 08:26:30;;;;;;;15.73;3.72;;;;;;;-146.58;100.00;69501.63;4993842;28;20167;-61
2022/09/09 08:28:57;;;;;;;5.63;3.00;;;;;;;-146.58;100.00;69501.63;4991375;28;20056;-61
2022/09/09 08:31:31;;;;;;;12.15;3.47;;;;;;;-146.58;100.00;69501.63;4993800;28;20034;-61
2022/09/09 08:33:59;;;;;;;16.92;4.07;;;;;;;-146.58;100.00;69501.63;4991965;28;20040;-61
2022/09/09 08:36:26;;;;;;;16.15;3.67;;;;;;;-146.58;100.00;69501.63;4993620;28;20126;-61
2022/09/09 08:38:57;;;;;;;10.10;2.15;;;;;;;-146.58;100.00;69501.63;4991738;28;20028;-61
2022/09/09 08:41:32;;;;;;;11.45;2.97;;;;;;;-146.58;100.00;69501.63;4993641;28;20478;-61
2022/09/09 08:44:11;;;;;;;7.97;3.70;;;;;;;-146.58;100.00;69501.63;4991566;28;20042;-62
2022/09/09 08:47:01;;;;;;;7.70;2.53;;;;;;;-146.58;100.00;69501.63;4993051;28;20026;-61
2022/09/09 08:49:27;;;;;;;16.55;3.90;;;;;;;-146.58;100.00;69501.63;4991777;28;20050;-61
2022/09/09 08:51:56;;;;;;;8.85;3.05;;;;;;;-146.58;100.00;69501.63;4992705;28;20069;-60
2022/09/09 08:54:22;;;;;;;9.35;2.47;;;;;;;-146.58;100.00;69501.63;4991775;28;20520;-61
2022/09/09 08:56:49;;;;;;;7.50;2.45;;;;;;;-146.58;100.00;69501.63;4993310;28;20105;-61
2022/09/09 08:59:19;;;;;;;8.43;2.58;;;;;;;-146.58;100.00;69501.63;4991212;28;20060;-61
2022/09/09 09:02:14;;;;;;;12.38;4.97;;;;;;;-146.58;100.00;69501.63;4992888;28;20032;-61
2022/09/09 09:05:16;;;;;;;8.88;3.17;;;;;;;-146.58;100.00;69501.63;4991104;28;20058;-61
2022/09/09 09:08:13;;;;;;;6.05;2.05;;;;;;;-146.58;100.00;69501.63;4992804;28;20026;-61
2022/09/09 09:10:46;;;;;;;8.65;2.50;;;;;;;-146.58;100.00;69501.63;4991336;28;20125;-61
2022/09/09 09:13:15;;;;;;;14.32;5.00;;;;;;;-146.58;100.00;69501.63;4992352;28;20099;-61
2022/09/09 09:15:42;;;;;;;7.10;2.25;;;;;;;-146.58;100.00;69501.63;4991246;28;20095;-61
2022/09/09 09:18:12;;;;;;;12.43;4.72;;;;;;;-146.58;100.00;69501.63;4991944;28;20040;-61
2022/09/09 09:21:10;;;;;;;7.43;2.85;;;;;;;-146.58;100.00;69501.63;4990842;28;20042;-61
2022/09/09 09:23:59;;;;;;;3.42;1.30;;;;;;;-146.58;100.00;69501.63;4991531;28;20034;-61
2022/09/09 09:26:30;;;;;;;10.73;2.78;;;;;;;-146.58;100.00;69501.63;4984840;28;21349;-61
2022/09/09 09:28:57;;;;;;;8.27;2.72;;;;;;;-146.58;100.00;69501.63;4990085;28;20046;-62
2022/09/09 09:31:23;;;;;;;12.02;2.15;;;;;;;-146.58;100.00;69501.63;5012269;28;20037;-61
2022/09/09 09:33:52;;;;;;;4.97;1.70;;;;;;;-146.58;100.00;69501.63;5010749;28;20022;-61
2022/09/09 09:36:19;;;;;;;11.27;3.25;;;;;;;-146.58;100.00;69501.63;5010810;28;20178;-60
2022/09/09 09:39:22;;;;;;;9.32;1.50;;;;;;;-146.58;100.00;69501.63;5010503;28;20392;-61
2022/09/09 09:41:47;;;;;;;8.75;2.42;;;;;;;-146.58;100.00;69501.63;5011544;28;20029;-60
2022/09/09 09:44:30;;;;;;;9.80;2.85;;;;;;;-146.58;100.00;69501.63;5010197;28;20513;-61
2022/09/09 09:47:14;;;;;;;9.35;2.63;;;;;;;-146.58;100.00;69501.63;5011356;28;20485;-61
2022/09/09 09:49:51;;;;;;;6.43;2.45;;;;;;;-146.58;100.00;69501.63;5009999;28;20042;-60
2022/09/09 09:52:21;;;;;;;7.30;1.75;;;;;;;-146.58;100.00;69501.63;5011965;28;20056;-61
2022/09/09 09:54:46;;;;;;;4.45;2.33;;;;;;;-146.58;100.00;69501.63;5010163;28;20049;-60
2022/09/09 09:57:14;;;;;;;10.90;1.90;;;;;;;-146.58;100.00;69501.63;5010906;28;20026;-61
2022/09/09 09:59:40;;;;;;;6.82;2.75;;;;;;;-146.58;100.00;69501.63;5010224;28;20109;-60
2022/09/09 10:02:25;;;;;;;6.55;2.20;;;;;;;-146.58;100.00;69501.63;5011305;28;20033;-61
2022/09/09 10:05:05;;;;;;;5.95;2.28;;;;;;;-146.58;100.00;69501.63;5009576;28;20532;-60
2022/09/09 10:07:32;;;;;;;5.20;1.70;;;;;;;-146.58;100.00;69501.63;5011823;28;20026;-60
2022/09/09 10:09:58;;;;;;;7.75;2.25;;;;;;;-146.58;100.00;69501.63;4999143;28;20062;-67
2022/09/09 10:12:35;;;;;;;2.85;2.05;;;;;;;-146.58;100.00;69501.63;4991003;28;20042;-61
2022/09/09 10:15:19;;;;;;;3.08;2.28;;;;;;;-146.58;100.00;69501.63;4990256;28;20537;-60
2022/09/09 10:17:56;;;;;;;3.67;1.40;;;;;;;-146.58;100.00;69501.63;4991791;28;20112;-61
2022/09/09 10:20:45;;;;;;;6.72;2.80;;;;;;;-146.58;100.00;69501.63;4988058;28;20540;-60
2022/09/09 10:23:57;;;;;;;6.10;3.17;;;;;;;-146.58;100.00;69501.63;4991195;28;20031;-61
2022/09/09 10:26:38;;;;;;;6.35;2.05;;;;;;;-146.58;100.00;69501.63;4989079;28;20056;-60
2022/09/09 10:29:21;;;;;;;8.73;2.08;;;;;;;-146.58;100.00;69501.63;4989996;28;20046;-60
2022/09/09 10:32:05;;;;;;;8.90;3.38;;;;;;;-146.58;100.00;69501.63;4995734;28;20030;-60
2022/09/09 10:34:56;;;;;;;4.65;2.10;;;;;;;-146.58;100.00;69501.63;4993612;28;20034;-65
2022/09/09 10:37:47;;;;;;;14.13;2.50;;;;;;;-146.58;100.00;69501.63;4995252;28;20022;-60
2022/09/09 10:40:20;;;;;;;6.18;1.85;;;;;;;-146.58;100.00;69501.63;4993441;28;20054;-61
2022/09/09 10:42:46;;;;;;;4.60;3.17;;;;;;;-146.58;100.00;69501.63;4993466;28;20027;-60
2022/09/09 10:45:34;;;;;;;5.32;1.92;;;;;;;-146.58;100.00;69501.63;4992717;28;20057;-61
2022/09/09 10:48:20;;;;;;;4.68;1.38;;;;;;;-146.58;100.00;69501.63;4993810;28;20494;-60
2022/09/09 10:51:14;;;;;;;3.75;1.33;;;;;;;-146.58;100.00;69501.63;4993715;28;20046;-60
2022/09/09 10:54:07;;;;;;;5.32;1.83;;;;;;;-146.58;100.00;69501.63;4993691;28;20034;-60
2022/09/09 10:56:34;;;;;;;8.82;1.80;;;;;;;-146.58;100.00;69501.63;4994732;28;20469;-60
2022/09/09 10:59:12;;;;;;;8.30;2.28;;;;;;;-146.58;100.00;69501.63;4993551;28;20575;-61
2022/09/09 11:02:00;;;;;;;9.30;2.53;;;;;;;-146.58;100.00;69501.63;4995411;28;20034;-60
2022/09/09 11:04:39;;;;;;;7.82;2.10;;;;;;;-146.58;100.00;69501.63;4993373;28;20120;-60
2022/09/09 11:07:06;;;;;;;;;;;;;;;-146.58;100.00;69501.63;4994393;28;20026;-60
2022/09/09 11:09:39;;;;;;;3.15;2.05;;;;;;;-146.58;100.00;69501.63;4993254;28;19925;-60
2022/09/09 11:12:09;;;;;;;5.45;1.67;;;;;;;-146.58;100.00;69501.63;4982274;28;20033;-61
2022/09/09 11:14:50;;;;;;;5.13;1.85;;;;;;;-146.58;100.00;69501.63;4993454;28;20043;-60
2022/09/09 11:17:23;;;;;;;13.50;2.38;;;;;;;-146.58;100.00;69501.63;4994383;28;20444;-60
2022/09/09 11:19:49;;;;;;;11.82;4.82;;;;;;;-146.58;100.00;69501.63;4993174;28;20121;-60
2022/09/09 11:22:36;;;;;;;6.60;1.77;;;;;;;-146.58;100.00;69501.63;4994370;28;20492;-60
2022/09/09 11:25:06;;;;;;;4.85;1.70;;;;;;;-146.58;100.00;69501.63;4993131;28;20557;-60
2022/09/09 11:27:41;;;;;;;3.88;1.73;;;;;;;-146.58;100.00;69501.63;4994644;28;20038;-60